createdAt,value
2023-02-06T00:00:19.073Z,-3.16
2023-02-06T00:02:49.325Z,-3.19
2023-02-06T00:05:19.765Z,-3.21
2023-02-06T00:07:50.251Z,-3.38
2023-02-06T00:10:20.375Z,-3.29
2023-02-06T00:12:53.223Z,-3.50
2023-02-06T00:15:23.448Z,-3.50
2023-02-06T00:17:53.528Z,-3.48
2023-02-06T00:20:23.806Z,-3.47
2023-02-06T00:22:54.149Z,-3.44
2023-02-06T00:25:24.161Z,-3.41
2023-02-06T00:27:56.879Z,-3.49
2023-02-06T00:30:28.356Z,-3.28
2023-02-06T00:32:58.392Z,-3.21
2023-02-06T00:35:28.352Z,-3.26
2023-02-06T00:37:59.965Z,-3.25
2023-02-06T00:40:30.839Z,-3.23
2023-02-06T00:43:03.481Z,-3.28
2023-02-06T00:45:33.886Z,-3.46
2023-02-06T00:48:04.908Z,-3.44
2023-02-06T00:50:35.036Z,-3.52
2023-02-06T00:53:05.938Z,-3.51
2023-02-06T00:55:36.144Z,-3.63
2023-02-06T00:58:09.049Z,-3.66
2023-02-06T01:00:39.169Z,-3.49
2023-02-06T01:03:09.246Z,-3.54
2023-02-06T01:05:39.308Z,-3.61
2023-02-06T01:08:09.433Z,-3.52
2023-02-06T01:10:39.509Z,-3.50
2023-02-06T01:13:13.372Z,-3.55
2023-02-06T01:15:44.668Z,-3.53
2023-02-06T01:18:14.782Z,-3.57
2023-02-06T01:20:44.903Z,-3.56
2023-02-06T01:23:14.987Z,-3.48
2023-02-06T01:25:45.029Z,-3.53
2023-02-06T01:28:18.128Z,-3.53
2023-02-06T01:30:48.272Z,-3.43
2023-02-06T01:33:18.301Z,-3.50
2023-02-06T01:35:48.731Z,-3.48
2023-02-06T01:38:18.819Z,-3.34
2023-02-06T01:40:48.821Z,-3.48
2023-02-06T01:43:23.621Z,-3.51
2023-02-06T01:45:53.684Z,-3.52
2023-02-06T01:48:29.082Z,-3.52
2023-02-06T01:51:00.767Z,-3.62
2023-02-06T01:53:32.071Z,-3.61
2023-02-06T01:56:04.864Z,-3.58
2023-02-06T01:58:41.647Z,-3.57
2023-02-06T02:01:12.425Z,-3.53
2023-02-06T02:03:45.540Z,-3.57
2023-02-06T02:06:19.065Z,-3.78
2023-02-06T02:08:51.648Z,-3.71
2023-02-06T02:11:24.612Z,-3.65
2023-02-06T02:13:58.484Z,-3.61
2023-02-06T02:16:41.848Z,-3.73
2023-02-06T02:19:33.856Z,-3.74
2023-02-06T02:22:30.324Z,-3.75
2023-02-06T02:25:35.922Z,-4.20
2023-02-06T02:28:38.207Z,-3.81
2023-02-06T02:31:43.103Z,-3.69
2023-02-06T02:34:44.688Z,-3.61
2023-02-06T02:37:23.229Z,-3.59
2023-02-06T02:40:02.343Z,-3.87
2023-02-06T02:42:43.719Z,-3.90
2023-02-06T02:45:22.330Z,-3.92
2023-02-06T02:48:01.119Z,-3.93
2023-02-06T02:50:35.705Z,-3.93
2023-02-06T02:53:07.446Z,-3.79
2023-02-06T02:55:37.983Z,-3.93
2023-02-06T02:58:11.979Z,-4.02
2023-02-06T03:00:46.458Z,-4.02
2023-02-06T03:03:18.840Z,-4.20
2023-02-06T03:06:06.307Z,-4.31
2023-02-06T03:08:49.622Z,-4.47
2023-02-06T03:11:22.226Z,-4.30
2023-02-06T03:13:56.901Z,-4.34
2023-02-06T03:16:32.177Z,-4.54
2023-02-06T03:19:08.386Z,-4.27
2023-02-06T03:21:43.303Z,-4.31
2023-02-06T03:24:18.619Z,-4.16
2023-02-06T03:26:52.230Z,-4.42
2023-02-06T03:29:23.394Z,-4.19
2023-02-06T03:31:59.751Z,-4.15
2023-02-06T03:34:38.152Z,-4.15
2023-02-06T03:37:11.433Z,-4.08
2023-02-06T03:39:42.303Z,-4.31
2023-02-06T03:42:16.334Z,-4.29
2023-02-06T03:44:52.454Z,-4.21
2023-02-06T03:47:25.885Z,-4.06
2023-02-06T03:49:59.754Z,-4.01
2023-02-06T03:52:38.314Z,-3.96
2023-02-06T03:55:13.743Z,-4.28
2023-02-06T03:57:47.640Z,-4.13
2023-02-06T04:00:19.182Z,-4.13
2023-02-06T04:02:50.635Z,-4.13
2023-02-06T04:05:22.119Z,-4.21
2023-02-06T04:07:56.860Z,-4.32
2023-02-06T04:10:27.601Z,-4.33
2023-02-06T04:12:58.522Z,-4.33
2023-02-06T04:15:29.015Z,-4.21
2023-02-06T04:18:01.291Z,-4.27
2023-02-06T04:20:32.313Z,-4.43
2023-02-06T04:23:04.626Z,-4.37
2023-02-06T04:25:34.857Z,-4.43
2023-02-06T04:28:06.532Z,-4.44
2023-02-06T04:30:36.342Z,-4.42
2023-02-06T04:33:06.656Z,-4.42
2023-02-06T04:35:36.886Z,-4.47
2023-02-06T04:38:09.744Z,-4.50
2023-02-06T04:40:40.161Z,-4.48
2023-02-06T04:43:10.255Z,-4.39
2023-02-06T04:45:42.042Z,-4.35
2023-02-06T04:48:12.079Z,-4.51
2023-02-06T04:50:42.159Z,-4.47
2023-02-06T04:53:15.232Z,-4.64
2023-02-06T04:55:45.319Z,-4.63
2023-02-06T04:58:15.609Z,-4.90
2023-02-06T05:00:45.705Z,-4.58
2023-02-06T05:03:15.670Z,-4.88
2023-02-06T05:05:45.701Z,-4.58
2023-02-06T05:08:18.323Z,-4.60
2023-02-06T05:10:48.539Z,-4.75
2023-02-06T05:13:18.752Z,-4.76
2023-02-06T05:15:49.226Z,-4.75
2023-02-06T05:18:19.300Z,-4.68
2023-02-06T05:20:49.633Z,-4.92
2023-02-06T05:23:22.562Z,-4.63
2023-02-06T05:25:52.575Z,-4.78
2023-02-06T05:28:22.911Z,-4.65
2023-02-06T05:30:53.215Z,-4.55
2023-02-06T05:33:23.321Z,-4.52
2023-02-06T05:35:53.372Z,-4.52
2023-02-06T05:38:26.015Z,-4.43
2023-02-06T05:40:56.089Z,-4.34
2023-02-06T05:43:26.106Z,-4.32
2023-02-06T05:45:56.093Z,-4.40
2023-02-06T05:48:28.887Z,-4.54
2023-02-06T05:50:58.911Z,-4.32
2023-02-06T05:53:31.592Z,-4.33
2023-02-06T05:56:01.604Z,-4.19
2023-02-06T05:58:31.569Z,-4.38
2023-02-06T06:01:01.608Z,-4.07
2023-02-06T06:03:33.423Z,-4.07
2023-02-06T06:06:03.748Z,-4.22
2023-02-06T06:08:37.224Z,-4.22
2023-02-06T06:11:07.732Z,-4.26
2023-02-06T06:13:41.043Z,-4.35
2023-02-06T06:16:11.301Z,-4.27
2023-02-06T06:18:41.312Z,-4.33
2023-02-06T06:21:11.391Z,-4.27
2023-02-06T06:23:44.205Z,-4.24
2023-02-06T06:26:14.305Z,-4.22
2023-02-06T06:28:44.723Z,-4.18
2023-02-06T06:31:15.613Z,-4.12
2023-02-06T06:33:46.115Z,-4.21
2023-02-06T06:36:16.727Z,-4.18
2023-02-06T06:38:49.352Z,-4.14
2023-02-06T06:41:19.401Z,-4.15
2023-02-06T06:43:51.454Z,-4.18
2023-02-06T06:46:21.866Z,-4.17
2023-02-06T06:48:52.158Z,-4.11
2023-02-06T06:51:22.217Z,-4.06
2023-02-06T06:53:54.893Z,-4.02
2023-02-06T06:56:24.987Z,-4.05
2023-02-06T06:58:55.690Z,-4.08
2023-02-06T07:01:25.520Z,-4.18
2023-02-06T07:03:55.644Z,-4.13
2023-02-06T07:06:26.081Z,-3.88
2023-02-06T07:08:58.991Z,-3.75
2023-02-06T07:11:29.577Z,-3.58
2023-02-06T07:13:59.539Z,-3.48
2023-02-06T07:16:30.428Z,-3.50
2023-02-06T07:19:00.505Z,-3.62
2023-02-06T07:21:30.615Z,-3.55
2023-02-06T07:24:05.437Z,-3.48
2023-02-06T07:26:35.755Z,-3.46
2023-02-06T07:29:05.839Z,-3.28
2023-02-06T07:31:35.876Z,-3.07
2023-02-06T07:34:06.049Z,-2.97
2023-02-06T07:36:36.462Z,-2.97
2023-02-06T07:39:09.736Z,-2.93
2023-02-06T07:41:39.870Z,-2.98
2023-02-06T07:44:12.652Z,-2.72
2023-02-06T07:46:43.029Z,-2.73
2023-02-06T07:49:15.377Z,-2.58
2023-02-06T07:51:45.946Z,-2.63
2023-02-06T07:54:20.822Z,-2.66
2023-02-06T07:56:51.000Z,-2.71
2023-02-06T07:59:21.302Z,-2.65
2023-02-06T08:01:51.406Z,-2.90
2023-02-06T08:04:21.492Z,-2.84
2023-02-06T08:06:51.550Z,-2.87
2023-02-06T08:09:24.304Z,-2.80
2023-02-06T08:11:54.564Z,-2.61
2023-02-06T08:14:24.793Z,-2.58
2023-02-06T08:16:55.321Z,-2.39
2023-02-06T08:19:25.911Z,-2.43
2023-02-06T08:21:56.346Z,-2.48
2023-02-06T08:24:29.295Z,-2.68
2023-02-06T08:26:59.441Z,-2.62
2023-02-06T08:29:29.902Z,-2.50
2023-02-06T08:32:00.216Z,-2.54
2023-02-06T08:34:30.860Z,-2.39
2023-02-06T08:37:01.207Z,-2.29
2023-02-06T08:39:34.095Z,-2.18
2023-02-06T08:42:04.215Z,-2.12
2023-02-06T08:44:34.431Z,-2.18
2023-02-06T08:47:09.985Z,-2.15
2023-02-06T08:49:41.126Z,-2.17
2023-02-06T08:52:11.131Z,-2.22
2023-02-06T08:54:44.164Z,-2.14
2023-02-06T08:57:15.109Z,-2.11
2023-02-06T08:59:45.852Z,-2.08
2023-02-06T09:02:15.688Z,-1.91
2023-02-06T09:04:46.090Z,-1.76
2023-02-06T09:07:17.329Z,-1.73
2023-02-06T09:09:50.125Z,-1.58
2023-02-06T09:12:20.225Z,-1.60
2023-02-06T09:14:50.754Z,-1.55
2023-02-06T09:17:20.957Z,-1.57
2023-02-06T09:19:51.047Z,-1.48
2023-02-06T09:22:21.136Z,-1.51
2023-02-06T09:24:57.052Z,-1.60
2023-02-06T09:27:27.153Z,-1.49
2023-02-06T09:29:57.468Z,-1.28
2023-02-06T09:32:27.740Z,-1.28
2023-02-06T09:34:57.805Z,-1.08
2023-02-06T09:37:27.988Z,-0.91
2023-02-06T09:40:00.871Z,-0.84
2023-02-06T09:42:35.706Z,-0.94
2023-02-06T09:45:11.925Z,-0.91
2023-02-06T09:47:47.675Z,-0.69
2023-02-06T09:50:26.994Z,-0.86
2023-02-06T09:53:14.333Z,-0.78
2023-02-06T09:55:48.872Z,-0.85
2023-02-06T09:58:29.501Z,-0.79
2023-02-06T10:01:05.792Z,-0.63
2023-02-06T10:04:05.353Z,-0.50
2023-02-06T10:06:43.135Z,-0.55
2023-02-06T10:09:19.814Z,-0.55
2023-02-06T10:11:56.683Z,-0.79
2023-02-06T10:14:33.826Z,-0.82
2023-02-06T10:17:06.269Z,-0.94
2023-02-06T10:19:46.730Z,-0.83
2023-02-06T10:22:21.308Z,-0.66
2023-02-06T10:25:04.237Z,-0.73
2023-02-06T10:27:38.346Z,-0.62
2023-02-06T10:30:09.263Z,-0.87
2023-02-06T10:32:48.153Z,-0.63
2023-02-06T10:35:37.871Z,-0.59
2023-02-06T10:38:27.997Z,-0.55
2023-02-06T10:41:04.595Z,-0.36
2023-02-06T10:43:46.880Z,-0.51
2023-02-06T10:46:38.857Z,-0.50
2023-02-06T10:49:17.956Z,-0.11
2023-02-06T10:51:53.237Z,-0.05
2023-02-06T10:54:27.547Z,-0.01
2023-02-06T10:57:01.070Z,-0.11
2023-02-06T10:59:38.051Z,0.01
2023-02-06T11:02:22.833Z,0.07
2023-02-06T11:04:57.038Z,-0.03
2023-02-06T11:07:30.951Z,-0.02
2023-02-06T11:10:01.675Z,-0.01
2023-02-06T11:12:37.252Z,0.15
2023-02-06T11:15:18.439Z,0.31
2023-02-06T11:17:49.455Z,0.32
2023-02-06T11:20:24.435Z,0.38
2023-02-06T11:22:55.430Z,0.49
2023-02-06T11:25:30.051Z,0.54
2023-02-06T11:28:01.266Z,0.44
2023-02-06T11:30:40.292Z,0.45
2023-02-06T11:33:20.703Z,0.41
2023-02-06T11:35:54.076Z,0.35
2023-02-06T11:38:27.909Z,0.54
2023-02-06T11:41:00.896Z,0.64
2023-02-06T11:43:34.490Z,0.68
2023-02-06T11:46:18.545Z,0.71
2023-02-06T11:48:50.104Z,0.76
2023-02-06T11:51:20.196Z,0.85
2023-02-06T11:54:03.479Z,0.76
2023-02-06T11:56:35.631Z,0.80
2023-02-06T11:59:08.356Z,0.92
2023-02-06T12:01:47.127Z,1.08
2023-02-06T12:04:24.826Z,1.16
2023-02-06T12:07:04.336Z,1.12
2023-02-06T12:09:34.760Z,1.28
2023-02-06T12:12:09.753Z,1.28
2023-02-06T12:14:45.080Z,1.23
2023-02-06T12:17:28.693Z,1.46
2023-02-06T12:20:08.391Z,1.35
2023-02-06T12:22:43.440Z,1.42
2023-02-06T12:25:27.886Z,1.36
2023-02-06T12:28:01.223Z,1.51
2023-02-06T12:30:40.455Z,1.56
2023-02-06T12:33:17.782Z,1.41
2023-02-06T12:35:51.693Z,0.92
2023-02-06T12:38:40.529Z,0.81
2023-02-06T12:41:24.456Z,0.86
2023-02-06T12:43:59.386Z,0.98
2023-02-06T12:46:31.709Z,1.05
2023-02-06T12:49:10.411Z,1.10
2023-02-06T12:51:44.259Z,1.05
2023-02-06T12:54:22.718Z,1.04
2023-02-06T12:56:58.399Z,0.63
2023-02-06T12:59:57.943Z,1.13
2023-02-06T13:03:01.302Z,1.24
2023-02-06T13:05:39.032Z,1.18
2023-02-06T13:08:12.442Z,1.19
2023-02-06T13:10:43.690Z,1.21
2023-02-06T13:13:29.984Z,1.08
2023-02-06T13:16:02.686Z,0.97
2023-02-06T13:18:55.370Z,1.02
2023-02-06T13:21:32.497Z,1.05
2023-02-06T13:24:23.455Z,1.03
2023-02-06T13:27:08.159Z,1.19
2023-02-06T13:29:41.705Z,1.24
2023-02-06T13:32:48.276Z,1.09
2023-02-06T13:35:31.543Z,1.04
2023-02-06T13:38:42.530Z,1.21
2023-02-06T13:41:32.111Z,1.23
2023-02-06T13:44:07.271Z,1.22
2023-02-06T13:47:13.093Z,1.27
2023-02-06T13:50:12.984Z,1.16
2023-02-06T13:52:52.728Z,1.07
2023-02-06T13:55:40.615Z,1.15
2023-02-06T13:58:39.337Z,1.08
2023-02-06T14:01:20.186Z,0.92
2023-02-06T14:03:52.882Z,0.99
2023-02-06T14:06:41.639Z,1.02
2023-02-06T14:09:30.837Z,1.05
2023-02-06T14:12:27.068Z,1.22
2023-02-06T14:15:09.337Z,1.16
2023-02-06T14:17:51.781Z,0.98
2023-02-06T14:20:34.741Z,1.14
2023-02-06T14:23:15.188Z,1.12
2023-02-06T14:25:57.189Z,1.30
2023-02-06T14:28:42.526Z,1.33
2023-02-06T14:31:23.052Z,0.90
2023-02-06T14:34:06.921Z,1.12
2023-02-06T14:36:54.436Z,1.19
2023-02-06T14:39:42.429Z,1.07
2023-02-06T14:42:18.901Z,1.06
2023-02-06T14:44:57.464Z,1.10
2023-02-06T14:47:31.899Z,1.05
2023-02-06T14:50:03.914Z,1.00
2023-02-06T14:52:35.124Z,1.03
2023-02-06T14:55:31.634Z,1.06
2023-02-06T14:58:02.367Z,1.03
2023-02-06T15:00:35.961Z,1.03
2023-02-06T15:03:09.229Z,0.97
2023-02-06T15:05:39.453Z,0.92
2023-02-06T15:08:12.016Z,0.97
2023-02-06T15:10:42.052Z,0.92
2023-02-06T15:13:24.379Z,0.92
2023-02-06T15:16:00.387Z,0.79
2023-02-06T15:18:30.547Z,0.71
2023-02-06T15:21:02.463Z,0.67
2023-02-06T15:23:49.314Z,0.42
2023-02-06T15:26:28.986Z,0.53
2023-02-06T15:29:00.900Z,0.58
2023-02-06T15:31:34.407Z,0.64
2023-02-06T15:34:05.916Z,0.44
2023-02-06T15:36:38.563Z,0.57
2023-02-06T15:39:10.885Z,0.61
2023-02-06T15:41:44.200Z,0.63
2023-02-06T15:44:26.309Z,0.65
2023-02-06T15:47:00.271Z,0.59
2023-02-06T15:49:41.152Z,0.45
2023-02-06T15:52:11.190Z,0.63
2023-02-06T15:54:45.169Z,0.65
2023-02-06T15:57:34.640Z,0.61
2023-02-06T16:00:09.302Z,0.62
2023-02-06T16:02:44.719Z,0.27
2023-02-06T16:05:26.936Z,0.46
2023-02-06T16:07:57.566Z,0.52
2023-02-06T16:10:30.690Z,0.60
2023-02-06T16:13:03.987Z,0.26
2023-02-06T16:15:36.915Z,0.52
2023-02-06T16:18:34.515Z,0.53
2023-02-06T16:21:27.119Z,0.30
2023-02-06T16:24:07.916Z,0.48
2023-02-06T16:26:47.153Z,0.50
2023-02-06T16:29:27.495Z,0.50
2023-02-06T16:32:03.058Z,0.59
2023-02-06T16:34:39.620Z,0.69
2023-02-06T16:37:13.726Z,0.61
2023-02-06T16:39:45.206Z,0.55
2023-02-06T16:42:18.171Z,0.50
2023-02-06T16:44:50.451Z,0.35
2023-02-06T16:47:23.152Z,0.31
2023-02-06T16:49:55.941Z,0.14
2023-02-06T16:52:29.232Z,0.37
2023-02-06T16:55:01.197Z,0.16
2023-02-06T16:57:35.243Z,0.43
2023-02-06T17:00:07.938Z,0.35
2023-02-06T17:02:38.461Z,0.41
2023-02-06T17:05:11.337Z,0.22
2023-02-06T17:07:41.469Z,0.36
2023-02-06T17:10:12.473Z,0.42
2023-02-06T17:12:44.537Z,0.45
2023-02-06T17:15:16.511Z,0.44
2023-02-06T17:17:46.899Z,0.40
2023-02-06T17:20:31.166Z,0.40
2023-02-06T17:23:01.346Z,0.42
2023-02-06T17:25:31.716Z,0.35
2023-02-06T17:28:02.255Z,0.30
2023-02-06T17:30:32.526Z,0.35
2023-02-06T17:33:02.678Z,0.25
2023-02-06T17:35:38.817Z,0.23
2023-02-06T17:38:10.562Z,0.19
2023-02-06T17:40:42.248Z,-0.01
2023-02-06T17:43:12.401Z,-0.06
2023-02-06T17:45:43.587Z,-0.08
2023-02-06T17:48:13.740Z,-0.12
2023-02-06T17:50:46.777Z,-0.02
2023-02-06T17:53:17.967Z,-0.11
2023-02-06T17:55:47.989Z,-0.08
2023-02-06T17:58:19.084Z,-0.08
2023-02-06T18:00:51.229Z,-0.04
2023-02-06T18:03:21.792Z,-0.03
2023-02-06T18:06:02.734Z,-0.11
2023-02-06T18:08:33.465Z,-0.26
2023-02-06T18:11:03.468Z,-0.28
2023-02-06T18:13:33.855Z,-0.32
2023-02-06T18:16:04.265Z,-0.32
2023-02-06T18:18:34.722Z,-0.23
2023-02-06T18:21:07.647Z,-0.19
2023-02-06T18:23:37.808Z,-0.24
2023-02-06T18:26:09.839Z,-0.34
2023-02-06T18:28:41.646Z,-0.32
2023-02-06T18:31:24.634Z,-0.30
2023-02-06T18:33:55.679Z,-0.32
2023-02-06T18:36:29.988Z,-0.20
2023-02-06T18:39:00.562Z,-0.30
2023-02-06T18:41:42.969Z,-0.44
2023-02-06T18:44:14.785Z,-0.58
2023-02-06T18:46:44.973Z,-0.61
2023-02-06T18:49:15.637Z,-0.55
2023-02-06T18:51:48.763Z,-0.60
2023-02-06T18:54:19.941Z,-0.49
2023-02-06T18:56:50.202Z,-0.53
2023-02-06T18:59:20.477Z,-0.58
2023-02-06T19:01:52.029Z,-0.43
2023-02-06T19:04:22.986Z,-0.45
2023-02-06T19:06:55.672Z,-0.42
2023-02-06T19:09:26.330Z,-0.47
2023-02-06T19:11:56.508Z,-0.51
2023-02-06T19:14:26.853Z,-0.47
2023-02-06T19:16:58.539Z,-0.56
2023-02-06T19:19:28.656Z,-0.69
2023-02-06T19:22:01.343Z,-0.68
2023-02-06T19:24:31.783Z,-0.75
2023-02-06T19:27:02.289Z,-0.83
2023-02-06T19:29:36.222Z,-0.81
2023-02-06T19:32:07.674Z,-0.89
2023-02-06T19:34:40.240Z,-1.13
2023-02-06T19:37:13.754Z,-1.09
2023-02-06T19:39:44.900Z,-1.17
2023-02-06T19:42:17.193Z,-1.19
2023-02-06T19:44:47.557Z,-1.22
2023-02-06T19:47:17.817Z,-1.32
2023-02-06T19:49:47.888Z,-1.35
2023-02-06T19:52:20.703Z,-1.54
2023-02-06T19:54:50.871Z,-1.42
2023-02-06T19:57:22.757Z,-1.53
2023-02-06T19:59:53.233Z,-1.53
2023-02-06T20:02:23.392Z,-1.54
2023-02-06T20:04:53.585Z,-1.47
2023-02-06T20:07:27.022Z,-1.48
2023-02-06T20:09:57.324Z,-1.59
2023-02-06T20:12:27.973Z,-1.63
2023-02-06T20:14:58.064Z,-1.71
2023-02-06T20:17:28.184Z,-1.72
2023-02-06T20:20:01.597Z,-1.72
2023-02-06T20:22:34.416Z,-1.72
2023-02-06T20:25:04.520Z,-1.61
2023-02-06T20:27:34.859Z,-1.78
2023-02-06T20:30:04.949Z,-1.64
2023-02-06T20:32:35.141Z,-1.58
2023-02-06T20:35:05.344Z,-1.79
2023-02-06T20:37:38.372Z,-1.63
2023-02-06T20:40:09.167Z,-1.63
2023-02-06T20:42:44.734Z,-1.72
2023-02-06T20:45:16.413Z,-1.76
2023-02-06T20:47:46.830Z,-1.73
2023-02-06T20:50:16.998Z,-1.73
2023-02-06T20:52:49.949Z,-1.65
2023-02-06T20:55:20.198Z,-1.63
2023-02-06T20:57:50.741Z,-1.59
2023-02-06T21:00:21.581Z,-1.77
2023-02-06T21:02:53.171Z,-1.96
2023-02-06T21:05:23.462Z,-1.81
2023-02-06T21:07:57.647Z,-1.75
2023-02-06T21:10:28.012Z,-1.68
2023-02-06T21:12:58.189Z,-1.75
2023-02-06T21:15:28.358Z,-1.75
2023-02-06T21:17:58.440Z,-1.92
2023-02-06T21:20:28.642Z,-1.71
2023-02-06T21:23:01.378Z,-1.92
2023-02-06T21:25:31.481Z,-1.96
2023-02-06T21:28:01.768Z,-1.99
2023-02-06T21:30:32.272Z,-2.00
2023-02-06T21:33:02.313Z,-1.91
2023-02-06T21:35:33.968Z,-1.83
2023-02-06T21:38:06.675Z,-1.68
2023-02-06T21:40:36.952Z,-1.67
2023-02-06T21:43:07.060Z,-1.57
2023-02-06T21:45:37.533Z,-1.47
2023-02-06T21:48:08.116Z,-1.52
2023-02-06T21:50:41.729Z,-1.40
2023-02-06T21:53:14.881Z,-1.40
2023-02-06T21:55:46.203Z,-1.44
2023-02-06T21:58:17.160Z,-1.31
2023-02-06T22:00:50.231Z,-1.35
2023-02-06T22:03:22.962Z,-1.46
2023-02-06T22:05:53.106Z,-1.53
2023-02-06T22:08:25.873Z,-1.32
2023-02-06T22:10:55.939Z,-1.30
2023-02-06T22:13:26.051Z,-1.24
2023-02-06T22:15:56.183Z,-1.27
2023-02-06T22:18:26.220Z,-1.35
2023-02-06T22:21:06.473Z,-1.46
2023-02-06T22:23:39.444Z,-1.36
2023-02-06T22:26:10.581Z,-1.65
2023-02-06T22:28:41.086Z,-1.33
2023-02-06T22:31:13.600Z,-1.51
2023-02-06T22:33:44.085Z,-1.70
2023-02-06T22:36:15.738Z,-1.91
2023-02-06T22:38:49.695Z,-1.94
2023-02-06T22:41:20.214Z,-2.13
2023-02-06T22:43:52.619Z,-2.12
2023-02-06T22:46:24.743Z,-2.19
2023-02-06T22:48:55.475Z,-2.21
2023-02-06T22:51:25.474Z,-2.24
2023-02-06T22:53:58.278Z,-2.30
2023-02-06T22:56:36.245Z,-2.61
2023-02-06T22:59:08.715Z,-2.41
2023-02-06T23:01:40.866Z,-2.39
2023-02-06T23:04:14.970Z,-2.31
2023-02-06T23:06:45.562Z,-2.19
2023-02-06T23:09:21.258Z,-2.09
2023-02-06T23:11:52.377Z,-1.94
2023-02-06T23:14:22.950Z,-2.02
2023-02-06T23:16:53.793Z,-1.93
2023-02-06T23:19:24.025Z,-1.87
2023-02-06T23:21:54.380Z,-1.80
2023-02-06T23:24:27.129Z,-1.84
2023-02-06T23:26:57.300Z,-1.79
2023-02-06T23:29:27.410Z,-1.68
2023-02-06T23:31:57.563Z,-1.64
2023-02-06T23:34:27.690Z,-1.63
2023-02-06T23:36:57.752Z,-1.63
2023-02-06T23:39:30.436Z,-1.68
2023-02-06T23:42:00.520Z,-1.94
2023-02-06T23:44:30.658Z,-1.73
2023-02-06T23:47:00.970Z,-1.76
2023-02-06T23:49:31.022Z,-1.77
2023-02-06T23:52:00.972Z,-1.72
2023-02-06T23:54:33.655Z,-1.68
2023-02-06T23:57:03.747Z,-1.63
2023-02-06T23:59:33.763Z,-1.61
